LOT2CF EDDH-EPWA
Flight info
| Callsign | LOT2CF |
|---|---|
| Flight time | 1h 4m |
| Altitude | 35000 |
| Route | RAMAR6B RAMAR DCT PABMI DCT RADEL DCT ALUKA DCT DENKO P851 BIMPA |
| Aircraft | E195/M-SDE3GILORVW/S |
Departure
| Time | 2026-05-04 06:50 |
|---|---|
| Airport | Hamburg Helmut Schmidt Airport (EDDH) |
Arrival
| Time | 2026-05-04 07:55 |
|---|---|
| Airport | Warsaw Chopin Airport (EPWA) |
| Time | Latitude | Longitude | Altitude | Speed | Heading |
|---|---|---|---|---|---|
| 2026-05-04 06:30 | 53.62966 | 10.00285 | 45 ft | 0 kts | 121° |
| 2026-05-04 06:41 | 53.62971 | 10.00272 | 45 ft | 4 kts | 121° |
| 2026-05-04 06:41 | 53.62985 | 10.00233 | 42 ft | 4 kts | 121° |
| 2026-05-04 06:41 | 53.62999 | 10.00194 | 42 ft | 4 kts | 121° |
| 2026-05-04 06:42 | 53.63010 | 10.00162 | 42 ft | 4 kts | 128° |
| 2026-05-04 06:42 | 53.63027 | 10.00141 | 41 ft | 4 kts | 197° |
| 2026-05-04 06:42 | 53.63044 | 10.00156 | 45 ft | 0 kts | 212° |
| 2026-05-04 06:44 | 53.63040 | 10.00153 | 45 ft | 1 kts | 206° |
| 2026-05-04 06:45 | 53.63025 | 10.00153 | 43 ft | 3 kts | 172° |
| 2026-05-04 06:45 | 53.63009 | 10.00181 | 42 ft | 4 kts | 116° |
| 2026-05-04 06:45 | 53.63015 | 10.00224 | 45 ft | 4 kts | 54° |
| 2026-05-04 06:45 | 53.63039 | 10.00234 | 45 ft | 3 kts | 356° |
| 2026-05-04 06:46 | 53.63059 | 10.00216 | 44 ft | 3 kts | 330° |
| 2026-05-04 06:46 | 53.63082 | 10.00197 | 45 ft | 4 kts | 336° |
| 2026-05-04 06:46 | 53.63108 | 10.00192 | 44 ft | 4 kts | 358° |
| 2026-05-04 06:46 | 53.63135 | 10.00188 | 47 ft | 4 kts | 354° |
| 2026-05-04 06:48 | 53.63483 | 10.00106 | 50 ft | 10 kts | 322° |
| 2026-05-04 06:48 | 53.63534 | 10.00020 | 50 ft | 11 kts | 318° |
| 2026-05-04 06:49 | 53.63562 | 9.99904 | 49 ft | 11 kts | 259° |
| 2026-05-04 06:50 | 53.59458 | 9.93937 | 1629 ft | 186 kts | 206° |
| 2026-05-04 06:51 | 53.58402 | 9.92558 | 1801 ft | 203 kts | 239° |
| 2026-05-04 06:51 | 53.57999 | 9.90297 | 2300 ft | 202 kts | 264° |
| 2026-05-04 06:51 | 53.58192 | 9.87983 | 2881 ft | 205 kts | 292° |
| 2026-05-04 06:51 | 53.58926 | 9.85829 | 3405 ft | 219 kts | 300° |
| 2026-05-04 06:52 | 53.59912 | 9.83715 | 3814 ft | 240 kts | 310° |
| 2026-05-04 06:52 | 53.61110 | 9.81793 | 4325 ft | 253 kts | 320° |
| 2026-05-04 06:52 | 53.62775 | 9.80714 | 5031 ft | 266 kts | 350° |
| 2026-05-04 06:52 | 53.64631 | 9.81218 | 5705 ft | 280 kts | 20° |
| 2026-05-04 06:53 | 53.66194 | 9.83180 | 6381 ft | 290 kts | 43° |
| 2026-05-04 06:53 | 53.67407 | 9.85931 | 6968 ft | 297 kts | 64° |
| 2026-05-04 06:53 | 53.67844 | 9.89347 | 7563 ft | 301 kts | 92° |
| 2026-05-04 06:53 | 53.67368 | 9.92756 | 8155 ft | 300 kts | 116° |
| 2026-05-04 06:54 | 53.66452 | 9.95933 | 8771 ft | 302 kts | 118° |
| 2026-05-04 06:54 | 53.65532 | 9.99135 | 9391 ft | 305 kts | 117° |
| 2026-05-04 06:54 | 53.64678 | 10.02432 | 10014 ft | 308 kts | 114° |
| 2026-05-04 06:54 | 53.63901 | 10.05844 | 10298 ft | 324 kts | 111° |
| 2026-05-04 06:55 | 53.63158 | 10.09510 | 10652 ft | 335 kts | 110° |
| 2026-05-04 06:55 | 53.62440 | 10.13263 | 11214 ft | 338 kts | 110° |
| 2026-05-04 06:55 | 53.61736 | 10.17078 | 11791 ft | 342 kts | 108° |
| 2026-05-04 06:55 | 53.61180 | 10.20890 | 12353 ft | 346 kts | 105° |
| 2026-05-04 06:56 | 53.60630 | 10.24857 | 12926 ft | 350 kts | 105° |
| 2026-05-04 06:57 | 53.56694 | 10.53681 | 16617 ft | 371 kts | 106° |
| 2026-05-04 06:58 | 53.56108 | 10.57929 | 17125 ft | 374 kts | 106° |
| 2026-05-04 06:58 | 53.55515 | 10.62219 | 17644 ft | 377 kts | 107° |
| 2026-05-04 06:58 | 53.54917 | 10.66525 | 18174 ft | 380 kts | 107° |
| 2026-05-04 06:58 | 53.54346 | 10.70904 | 18624 ft | 386 kts | 101° |
| 2026-05-04 06:59 | 53.54294 | 10.75471 | 19064 ft | 393 kts | 92° |
| 2026-05-04 06:59 | 53.53933 | 10.79987 | 19487 ft | 390 kts | 109° |
| 2026-05-04 06:59 | 53.53171 | 10.84377 | 19960 ft | 392 kts | 112° |
| 2026-05-04 06:59 | 53.52344 | 10.88712 | 20410 ft | 395 kts | 112° |
| 2026-05-04 07:01 | 53.47235 | 11.21029 | 23207 ft | 421 kts | 108° |
| 2026-05-04 07:01 | 53.46542 | 11.25824 | 23576 ft | 424 kts | 108° |
| 2026-05-04 07:02 | 53.45842 | 11.30635 | 23905 ft | 427 kts | 108° |
| 2026-05-04 07:02 | 53.45133 | 11.35512 | 24251 ft | 430 kts | 108° |
| 2026-05-04 07:02 | 53.44426 | 11.40336 | 24598 ft | 433 kts | 108° |
| 2026-05-04 07:02 | 53.43706 | 11.45252 | 24941 ft | 435 kts | 108° |
| 2026-05-04 07:03 | 53.42969 | 11.50265 | 25287 ft | 438 kts | 108° |
| 2026-05-04 07:03 | 53.42244 | 11.55171 | 25591 ft | 441 kts | 108° |
| 2026-05-04 07:03 | 53.41507 | 11.60162 | 25922 ft | 443 kts | 108° |
| 2026-05-04 07:03 | 53.40719 | 11.65161 | 26221 ft | 443 kts | 112° |
| 2026-05-04 07:04 | 53.39571 | 11.69924 | 26505 ft | 439 kts | 122° |
| 2026-05-04 07:04 | 53.38141 | 11.74441 | 26802 ft | 440 kts | 122° |
| 2026-05-04 07:04 | 53.36749 | 11.79016 | 27077 ft | 442 kts | 122° |
| 2026-05-04 07:04 | 53.35323 | 11.83602 | 27354 ft | 444 kts | 122° |
| 2026-05-04 07:05 | 53.33897 | 11.88204 | 27635 ft | 446 kts | 122° |
| 2026-05-04 07:05 | 53.32464 | 11.92816 | 27903 ft | 449 kts | 122° |
| 2026-05-04 07:05 | 53.31011 | 11.97478 | 28175 ft | 451 kts | 122° |
| 2026-05-04 07:05 | 53.29559 | 12.02135 | 28439 ft | 453 kts | 122° |
| 2026-05-04 07:06 | 53.26648 | 12.11440 | 28966 ft | 457 kts | 121° |
| 2026-05-04 07:06 | 53.25167 | 12.16155 | 29220 ft | 459 kts | 121° |
| 2026-05-04 07:06 | 53.23681 | 12.20887 | 29474 ft | 461 kts | 121° |
| 2026-05-04 07:07 | 53.22187 | 12.25628 | 29719 ft | 463 kts | 121° |
| 2026-05-04 07:08 | 53.11562 | 12.59095 | 31632 ft | 457 kts | 122° |
| 2026-05-04 07:09 | 53.10070 | 12.63754 | 31960 ft | 454 kts | 122° |
| 2026-05-04 07:09 | 53.08591 | 12.68367 | 32272 ft | 451 kts | 123° |
| 2026-05-04 07:09 | 53.07115 | 12.72964 | 32578 ft | 449 kts | 123° |
| 2026-05-04 07:09 | 53.05642 | 12.77539 | 32878 ft | 447 kts | 123° |
| 2026-05-04 07:10 | 53.04180 | 12.82076 | 33178 ft | 445 kts | 123° |
| 2026-05-04 07:10 | 53.02720 | 12.86593 | 33446 ft | 443 kts | 124° |
| 2026-05-04 07:12 | 52.94604 | 13.19437 | 34650 ft | 459 kts | 96° |
| 2026-05-04 07:12 | 52.94418 | 13.24696 | 34790 ft | 453 kts | 98° |
| 2026-05-04 07:12 | 52.94219 | 13.29889 | 34878 ft | 451 kts | 97° |
| 2026-05-04 07:13 | 52.93811 | 13.40359 | 34953 ft | 458 kts | 97° |
| 2026-05-04 07:13 | 52.93387 | 13.50989 | 34962 ft | 466 kts | 97° |
| 2026-05-04 07:14 | 52.92491 | 13.72776 | 34957 ft | 483 kts | 97° |
| 2026-05-04 07:14 | 52.92257 | 13.78344 | 34952 ft | 487 kts | 97° |
| 2026-05-04 07:15 | 52.91773 | 13.89613 | 34958 ft | 494 kts | 97° |
| 2026-05-04 07:15 | 52.91272 | 14.01034 | 34948 ft | 495 kts | 97° |
| 2026-05-04 07:16 | 52.90760 | 14.12402 | 34959 ft | 495 kts | 97° |
| 2026-05-04 07:16 | 52.89966 | 14.23704 | 34963 ft | 494 kts | 99° |
| 2026-05-04 07:17 | 52.89158 | 14.34979 | 34956 ft | 492 kts | 99° |
| 2026-05-04 07:17 | 52.88344 | 14.46248 | 34963 ft | 492 kts | 99° |
| 2026-05-04 07:18 | 52.87529 | 14.57405 | 34959 ft | 491 kts | 99° |
| 2026-05-04 07:18 | 52.86700 | 14.68623 | 34961 ft | 490 kts | 99° |
| 2026-05-04 07:19 | 52.85861 | 14.79820 | 34967 ft | 489 kts | 99° |
| 2026-05-04 07:19 | 52.85013 | 14.90986 | 34959 ft | 489 kts | 99° |
| 2026-05-04 07:20 | 52.84155 | 15.02140 | 34971 ft | 488 kts | 100° |
| 2026-05-04 07:20 | 52.83289 | 15.13271 | 34968 ft | 488 kts | 100° |
| 2026-05-04 07:22 | 52.79882 | 15.55760 | 34963 ft | 485 kts | 100° |
| 2026-05-04 07:23 | 52.78971 | 15.66802 | 34969 ft | 484 kts | 100° |
| 2026-05-04 07:23 | 52.77902 | 15.79601 | 34962 ft | 483 kts | 101° |
| 2026-05-04 07:24 | 52.77123 | 15.88811 | 34972 ft | 483 kts | 101° |
| 2026-05-04 07:24 | 52.76184 | 15.99802 | 34962 ft | 483 kts | 101° |
| 2026-05-04 07:26 | 52.72344 | 16.43550 | 34968 ft | 482 kts | 101° |
| 2026-05-04 07:27 | 52.71359 | 16.54469 | 34970 ft | 482 kts | 101° |
| 2026-05-04 07:27 | 52.70363 | 16.65397 | 34972 ft | 481 kts | 101° |
| 2026-05-04 07:28 | 52.69359 | 16.76304 | 34970 ft | 481 kts | 101° |
| 2026-05-04 07:28 | 52.68342 | 16.87221 | 34965 ft | 481 kts | 101° |
| 2026-05-04 07:29 | 52.67322 | 16.98065 | 34970 ft | 481 kts | 101° |
| 2026-05-04 07:29 | 52.66290 | 17.08938 | 34962 ft | 480 kts | 101° |
| 2026-05-04 07:30 | 52.65245 | 17.19825 | 34967 ft | 480 kts | 101° |
| 2026-05-04 07:30 | 52.64193 | 17.30686 | 34971 ft | 480 kts | 101° |
| 2026-05-04 07:31 | 52.63132 | 17.41521 | 34970 ft | 479 kts | 101° |
| 2026-05-04 07:33 | 52.58803 | 17.84688 | 34759 ft | 480 kts | 101° |
| 2026-05-04 07:33 | 52.58251 | 17.90091 | 34155 ft | 478 kts | 102° |
| 2026-05-04 07:33 | 52.57698 | 17.95457 | 33510 ft | 472 kts | 102° |
| 2026-05-04 07:34 | 52.57152 | 18.00745 | 32860 ft | 466 kts | 102° |
| 2026-05-04 07:34 | 52.56609 | 18.05971 | 32220 ft | 461 kts | 102° |
| 2026-05-04 07:34 | 52.56069 | 18.11147 | 31590 ft | 456 kts | 102° |
| 2026-05-04 07:34 | 52.55536 | 18.16237 | 30998 ft | 451 kts | 102° |
| 2026-05-04 07:35 | 52.55004 | 18.21293 | 30408 ft | 446 kts | 102° |
| 2026-05-04 07:35 | 52.54480 | 18.26241 | 29799 ft | 445 kts | 102° |
| 2026-05-04 07:35 | 52.53947 | 18.31269 | 29145 ft | 449 kts | 102° |
| 2026-05-04 07:35 | 52.53409 | 18.36318 | 28497 ft | 448 kts | 102° |
| 2026-05-04 07:36 | 52.52873 | 18.41335 | 27862 ft | 443 kts | 102° |
| 2026-05-04 07:36 | 52.52340 | 18.46293 | 27227 ft | 438 kts | 102° |
| 2026-05-04 07:38 | 52.48699 | 18.79653 | 23110 ft | 414 kts | 102° |
| 2026-05-04 07:38 | 52.48184 | 18.84274 | 22465 ft | 410 kts | 102° |
| 2026-05-04 07:38 | 52.47675 | 18.88859 | 21836 ft | 407 kts | 102° |
| 2026-05-04 07:38 | 52.47166 | 18.93406 | 21219 ft | 404 kts | 102° |
| 2026-05-04 07:39 | 52.46660 | 18.97924 | 20612 ft | 400 kts | 102° |
| 2026-05-04 07:39 | 52.46157 | 19.02393 | 20015 ft | 397 kts | 103° |
| 2026-05-04 07:39 | 52.45656 | 19.06835 | 19430 ft | 395 kts | 103° |
| 2026-05-04 07:39 | 52.45155 | 19.11249 | 18857 ft | 392 kts | 103° |
| 2026-05-04 07:40 | 52.44656 | 19.15632 | 18299 ft | 390 kts | 103° |
| 2026-05-04 07:40 | 52.44157 | 19.20002 | 17658 ft | 388 kts | 103° |
| 2026-05-04 07:40 | 52.43667 | 19.24281 | 17035 ft | 386 kts | 103° |
| 2026-05-04 07:40 | 52.43173 | 19.28589 | 16421 ft | 383 kts | 103° |
| 2026-05-04 07:41 | 52.42681 | 19.32865 | 15813 ft | 381 kts | 103° |
| 2026-05-04 07:41 | 52.42188 | 19.37119 | 15222 ft | 379 kts | 103° |
| 2026-05-04 07:41 | 52.41696 | 19.41339 | 14647 ft | 377 kts | 103° |
| 2026-05-04 07:41 | 52.41210 | 19.45549 | 14072 ft | 374 kts | 103° |
| 2026-05-04 07:42 | 52.40719 | 19.49733 | 13480 ft | 372 kts | 103° |
| 2026-05-04 07:42 | 52.40234 | 19.53891 | 12855 ft | 370 kts | 103° |
| 2026-05-04 07:42 | 52.39768 | 19.58039 | 12241 ft | 368 kts | 102° |
| 2026-05-04 07:42 | 52.39296 | 19.62149 | 11647 ft | 367 kts | 103° |
| 2026-05-04 07:43 | 52.38822 | 19.66237 | 11191 ft | 361 kts | 103° |
| 2026-05-04 07:43 | 52.38368 | 19.70194 | 11089 ft | 346 kts | 102° |
| 2026-05-04 07:43 | 52.37934 | 19.73940 | 11018 ft | 331 kts | 103° |
| 2026-05-04 07:43 | 52.37508 | 19.77601 | 10969 ft | 315 kts | 103° |
| 2026-05-04 07:44 | 52.37110 | 19.81002 | 10945 ft | 301 kts | 103° |
| 2026-05-04 07:44 | 52.36725 | 19.84292 | 10953 ft | 288 kts | 103° |
| 2026-05-04 07:44 | 52.36352 | 19.87486 | 10743 ft | 285 kts | 103° |
| 2026-05-04 07:44 | 52.35978 | 19.90680 | 10369 ft | 287 kts | 103° |
| 2026-05-04 07:45 | 52.35599 | 19.93892 | 9998 ft | 289 kts | 104° |
| 2026-05-04 07:45 | 52.35213 | 19.97126 | 9633 ft | 290 kts | 103° |
| 2026-05-04 07:45 | 52.34826 | 20.00374 | 9209 ft | 292 kts | 103° |
| 2026-05-04 07:45 | 52.34440 | 20.03661 | 8756 ft | 296 kts | 103° |
| 2026-05-04 07:46 | 52.34046 | 20.06994 | 8310 ft | 300 kts | 103° |
| 2026-05-04 07:46 | 52.33642 | 20.10363 | 7890 ft | 303 kts | 102° |
| 2026-05-04 07:46 | 52.33249 | 20.13707 | 7447 ft | 305 kts | 103° |
| 2026-05-04 07:46 | 52.32840 | 20.17163 | 7033 ft | 306 kts | 102° |
| 2026-05-04 07:47 | 52.32431 | 20.20548 | 6565 ft | 308 kts | 103° |
| 2026-05-04 07:47 | 52.32014 | 20.23984 | 6117 ft | 309 kts | 102° |
| 2026-05-04 07:47 | 52.31604 | 20.27426 | 5657 ft | 309 kts | 103° |
| 2026-05-04 07:49 | 52.28879 | 20.50354 | 4049 ft | 261 kts | 103° |
| 2026-05-04 07:49 | 52.28522 | 20.53228 | 4042 ft | 254 kts | 107° |
| 2026-05-04 07:49 | 52.27998 | 20.55931 | 4018 ft | 246 kts | 112° |
| 2026-05-04 07:50 | 52.27406 | 20.58546 | 3980 ft | 247 kts | 114° |
| 2026-05-04 07:50 | 52.26708 | 20.61057 | 3995 ft | 243 kts | 133° |
| 2026-05-04 07:50 | 52.25583 | 20.62964 | 4087 ft | 225 kts | 152° |
| 2026-05-04 07:50 | 52.24328 | 20.64298 | 4097 ft | 207 kts | 159° |
| 2026-05-04 07:51 | 52.23250 | 20.65805 | 3921 ft | 214 kts | 124° |
| 2026-05-04 07:51 | 52.22770 | 20.68199 | 3520 ft | 227 kts | 99° |
| 2026-05-04 07:51 | 52.22801 | 20.70722 | 3560 ft | 215 kts | 84° |
| 2026-05-04 07:51 | 52.23036 | 20.73051 | 3453 ft | 204 kts | 85° |
| 2026-05-04 07:52 | 52.23013 | 20.75379 | 2935 ft | 204 kts | 107° |
| 2026-05-04 07:52 | 52.22486 | 20.77348 | 2823 ft | 178 kts | 125° |
| 2026-05-04 07:52 | 52.21801 | 20.79034 | 2400 ft | 183 kts | 131° |
| 2026-05-04 07:52 | 52.21140 | 20.80827 | 1949 ft | 187 kts | 122° |
| 2026-05-04 07:53 | 52.20601 | 20.82739 | 1751 ft | 176 kts | 117° |
| 2026-05-04 07:54 | 52.17249 | 20.94296 | 570 ft | 156 kts | 120° |
| 2026-05-04 07:55 | 52.16834 | 20.95891 | 361 ft | 145 kts | 117° |
| 2026-05-04 07:55 | 52.16459 | 20.97145 | 336 ft | 94 kts | 114° |
| 2026-05-04 07:55 | 52.16390 | 20.97589 | 335 ft | 8 kts | 96° |
| 2026-05-04 07:55 | 52.16395 | 20.97688 | 337 ft | 9 kts | 76° |
| 2026-05-04 07:56 | 52.16424 | 20.97787 | 337 ft | 10 kts | 55° |